Strona główna
METAR-TAF:

METAR-TAF

Lotnisko :

Port lotniczy Windawa

Windawa, Łotwa

Szerokość geograficzna: 57-21-28N, Długość geograficzna: 021-32-39E, wysokość: 6 m

Aktualna obserwacja pogody

Raport powstał 43 minut temu, godzina 18:50 UTC
Wiatr 3 kt z kierunków zmiennych
Temperatura 1°C
Wilgotność 86%
Ciśnienie 1031 hPa
Widzialność 10 km lub więcej
Zachmurzenie całkowite na wysokości 2100 ft

METAR: EVVA 201850Z AUTO VRB03KT 9999 OVC021 01/M01 Q1031

czas: 21:33 (19:33 UTC)


TAF: brakujący

Obserwacja i prognoza pogody dla ponad 4000 lotnisk (raport METAR i TAF).

Dostępne stacje oznaczono żółtymi i czerwonymi punktami na mapie.

Najedź kursorem aby zobaczyć nazwę stacji.

Kliknij aby zobaczyć obserwacje i prognozy pogody.

Aby zmienić mapę: kliknij na zielony przycisk z czarnym krzyżykiem, aby powiększyć; na zielony przycisk z myślnikiem, aby pomniejszyć; na zielone strzałki, aby przejść do map sąsiednich.


METAR-TAF: